Weather at El Milagro Carabobo Airport

Public forecast

Using degrees Celsius for public forecast. Weather courtesy of forecast.io.

Closest aviation weather report (METAR) to El Milagro Carabobo Airport

Report is more than 6 hours old.

Closest report is Arturo Michelena International Airport, 26.4 nm (48.9 km) E.

2024/06/22 02:00 (retrieved 8 hours ago)

SVVA 220200Z /////KT 9999 BKN016 23/22 Q1014

Closest aviation forecast (TAF) to El Milagro Carabobo Airport

Forecast is more than 12 hours old.

Closest forecast is Simón Bolívar International Airport, 86.1 nm (159.4 km) ENE.

2024/06/20 18:36 (retrieved 2 days ago)

TAF SVMI 201600Z 2018/2118 09007KT 9999 SCT016 TX33/2018Z TN23/2107Z TEMPO 2019/2023 07010KT 9999 SCT070 BKN016